sensor_id;sensor_type;location;lat;lon;timestamp;pressure;altitude;pressure_sealevel;temperature;humidity
84967;BME280;75275;51.348;12.358;2024-03-22T00:00:04;101064.56;;;9.08;68.01
84967;BME280;75275;51.348;12.358;2024-03-22T00:02:30;101070.75;;;9.04;68.73
84967;BME280;75275;51.348;12.358;2024-03-22T00:04:57;101068.75;;;8.99;68.14
84967;BME280;75275;51.348;12.358;2024-03-22T00:07:24;101061.88;;;8.97;68.49
84967;BME280;75275;51.348;12.358;2024-03-22T00:09:51;101062.72;;;8.97;68.08
84967;BME280;75275;51.348;12.358;2024-03-22T00:12:17;101062.13;;;8.95;68.61
84967;BME280;75275;51.348;12.358;2024-03-22T00:14:44;101053.34;;;8.93;68.39
84967;BME280;75275;51.348;12.358;2024-03-22T00:17:10;101054.91;;;8.89;68.26
84967;BME280;75275;51.348;12.358;2024-03-22T00:19:38;101054.91;;;8.89;68.96
84967;BME280;75275;51.348;12.358;2024-03-22T00:22:04;101051.59;;;8.87;68.78
84967;BME280;75275;51.348;12.358;2024-03-22T00:24:32;101052.44;;;8.87;69.05
84967;BME280;75275;51.348;12.358;2024-03-22T00:26:58;101043.63;;;8.85;68.86
84967;BME280;75275;51.348;12.358;2024-03-22T00:29:25;101039.50;;;8.83;68.98
84967;BME280;75275;51.348;12.358;2024-03-22T00:31:51;101040.81;;;8.80;68.43
84967;BME280;75275;51.348;12.358;2024-03-22T00:34:18;101025.38;;;8.74;69.52
84967;BME280;75275;51.348;12.358;2024-03-22T00:36:45;101033.50;;;8.69;69.94
84967;BME280;75275;51.348;12.358;2024-03-22T00:39:11;101031.50;;;8.53;70.43
84967;BME280;75275;51.348;12.358;2024-03-22T00:41:41;101024.41;;;8.52;70.61
84967;BME280;75275;51.348;12.358;2024-03-22T00:44:08;101028.94;;;8.46;70.84
84967;BME280;75275;51.348;12.358;2024-03-22T00:46:34;101029.44;;;8.43;71.02
84967;BME280;75275;51.348;12.358;2024-03-22T00:49:01;101018.25;;;8.44;70.79
84967;BME280;75275;51.348;12.358;2024-03-22T00:51:28;101028.69;;;8.48;70.68
84967;BME280;75275;51.348;12.358;2024-03-22T00:53:55;101017.91;;;8.41;71.14
84967;BME280;75275;51.348;12.358;2024-03-22T00:56:21;101016.25;;;8.40;70.99
84967;BME280;75275;51.348;12.358;2024-03-22T00:58:49;101015.66;;;8.38;71.46
84967;BME280;75275;51.348;12.358;2024-03-22T01:01:15;101011.97;;;8.32;71.29
84967;BME280;75275;51.348;12.358;2024-03-22T01:03:41;101013.25;;;8.30;71.84
84967;BME280;75275;51.348;12.358;2024-03-22T01:06:07;101004.47;;;8.28;71.50
84967;BME280;75275;51.348;12.358;2024-03-22T01:08:34;100996.19;;;8.23;72.63
84967;BME280;75275;51.348;12.358;2024-03-22T01:10:59;100991.81;;;8.22;71.39
84967;BME280;75275;51.348;12.358;2024-03-22T01:13:26;100989.91;;;8.22;71.57
84967;BME280;75275;51.348;12.358;2024-03-22T01:15:53;100993.53;;;8.28;71.99
84967;BME280;75275;51.348;12.358;2024-03-22T01:18:20;100984.88;;;8.31;71.70
84967;BME280;75275;51.348;12.358;2024-03-22T01:20:46;100982.25;;;8.36;71.55
84967;BME280;75275;51.348;12.358;2024-03-22T01:23:13;100970.25;;;8.37;71.90
84967;BME280;75275;51.348;12.358;2024-03-22T01:25:39;100970.88;;;8.39;71.87
84967;BME280;75275;51.348;12.358;2024-03-22T01:28:05;100968.97;;;8.39;71.24
84967;BME280;75275;51.348;12.358;2024-03-22T01:30:35;100969.06;;;8.44;71.87
84967;BME280;75275;51.348;12.358;2024-03-22T01:33:04;100967.84;;;8.52;70.88
84967;BME280;75275;51.348;12.358;2024-03-22T01:35:29;100964.56;;;8.50;71.10
84967;BME280;75275;51.348;12.358;2024-03-22T01:37:56;100962.38;;;8.52;71.43
84967;BME280;75275;51.348;12.358;2024-03-22T01:40:22;100961.06;;;8.55;71.01
84967;BME280;75275;51.348;12.358;2024-03-22T01:42:53;100958.09;;;8.56;71.01
84967;BME280;75275;51.348;12.358;2024-03-22T01:45:18;100955.34;;;8.56;71.75
84967;BME280;75275;51.348;12.358;2024-03-22T01:47:46;100943.59;;;8.56;70.89
84967;BME280;75275;51.348;12.358;2024-03-22T01:50:13;100943.03;;;8.54;70.90
84967;BME280;75275;51.348;12.358;2024-03-22T01:52:40;100932.44;;;8.57;71.39
84967;BME280;75275;51.348;12.358;2024-03-22T01:55:07;100930.28;;;8.59;71.02
84967;BME280;75275;51.348;12.358;2024-03-22T01:57:34;100923.16;;;8.58;70.86
84967;BME280;75275;51.348;12.358;2024-03-22T02:00:02;100934.09;;;8.58;70.89
84967;BME280;75275;51.348;12.358;2024-03-22T02:02:29;100924.31;;;8.62;70.85
84967;BME280;75275;51.348;12.358;2024-03-22T02:04:56;100921.59;;;8.62;70.70
84967;BME280;75275;51.348;12.358;2024-03-22T02:07:25;100918.38;;;8.65;70.35
84967;BME280;75275;51.348;12.358;2024-03-22T02:09:55;100917.78;;;8.63;70.19
84967;BME280;75275;51.348;12.358;2024-03-22T02:12:25;100910.66;;;8.62;70.72
84967;BME280;75275;51.348;12.358;2024-03-22T02:14:51;100905.78;;;8.64;70.96
84967;BME280;75275;51.348;12.358;2024-03-22T02:17:18;100907.66;;;8.64;70.57
84967;BME280;75275;51.348;12.358;2024-03-22T02:19:43;100899.81;;;8.67;69.80
84967;BME280;75275;51.348;12.358;2024-03-22T02:22:10;100901.81;;;8.72;69.70
84967;BME280;75275;51.348;12.358;2024-03-22T02:24:37;100896.69;;;8.76;69.66
84967;BME280;75275;51.348;12.358;2024-03-22T02:27:04;100886.59;;;8.76;69.72
84967;BME280;75275;51.348;12.358;2024-03-22T02:29:30;100882.03;;;8.65;69.82
84967;BME280;75275;51.348;12.358;2024-03-22T02:31:57;100873.97;;;8.58;70.59
84967;BME280;75275;51.348;12.358;2024-03-22T02:34:23;100875.63;;;8.59;70.18
84967;BME280;75275;51.348;12.358;2024-03-22T02:36:50;100871.16;;;8.70;69.77
84967;BME280;75275;51.348;12.358;2024-03-22T02:39:16;100874.81;;;8.76;69.03
84967;BME280;75275;51.348;12.358;2024-03-22T02:41:44;100872.66;;;8.78;69.04
84967;BME280;75275;51.348;12.358;2024-03-22T02:44:10;100876.53;;;8.82;68.66
84967;BME280;75275;51.348;12.358;2024-03-22T02:46:37;100872.50;;;8.84;69.07
84967;BME280;75275;51.348;12.358;2024-03-22T02:49:03;100871.69;;;8.84;69.02
84967;BME280;75275;51.348;12.358;2024-03-22T02:51:29;100874.41;;;8.84;68.94
84967;BME280;75275;51.348;12.358;2024-03-22T02:53:55;100866.22;;;8.84;68.70
84967;BME280;75275;51.348;12.358;2024-03-22T02:56:23;100859.16;;;8.88;68.17
84967;BME280;75275;51.348;12.358;2024-03-22T02:58:50;100871.00;;;8.94;69.00
84967;BME280;75275;51.348;12.358;2024-03-22T03:01:17;100860.91;;;8.94;68.17
84967;BME280;75275;51.348;12.358;2024-03-22T03:03:43;100871.56;;;8.96;68.21
84967;BME280;75275;51.348;12.358;2024-03-22T03:06:10;100864.78;;;8.98;68.40
84967;BME280;75275;51.348;12.358;2024-03-22T03:08:41;100859.06;;;9.00;68.34
84967;BME280;75275;51.348;12.358;2024-03-22T03:11:08;100848.94;;;9.00;68.59
84967;BME280;75275;51.348;12.358;2024-03-22T03:13:34;100851.94;;;8.99;68.58
84967;BME280;75275;51.348;12.358;2024-03-22T03:16:02;100845.66;;;8.98;68.55
84967;BME280;75275;51.348;12.358;2024-03-22T03:18:28;100846.81;;;9.02;68.35
84967;BME280;75275;51.348;12.358;2024-03-22T03:20:55;100844.06;;;9.02;67.48
84967;BME280;75275;51.348;12.358;2024-03-22T03:23:20;100835.03;;;9.02;68.08
84967;BME280;75275;51.348;12.358;2024-03-22T03:25:47;100828.66;;;8.96;67.50
84967;BME280;75275;51.348;12.358;2024-03-22T03:28:14;100834.06;;;8.91;67.77
84967;BME280;75275;51.348;12.358;2024-03-22T03:30:41;100823.63;;;8.88;68.08
84967;BME280;75275;51.348;12.358;2024-03-22T03:33:08;100820.88;;;8.88;67.90
84967;BME280;75275;51.348;12.358;2024-03-22T03:35:35;100821.81;;;8.94;67.54
84967;BME280;75275;51.348;12.358;2024-03-22T03:38:01;100823.13;;;8.91;68.01
84967;BME280;75275;51.348;12.358;2024-03-22T03:40:28;100821.47;;;8.90;67.74
84967;BME280;75275;51.348;12.358;2024-03-22T03:42:53;100826.78;;;8.80;67.88
84967;BME280;75275;51.348;12.358;2024-03-22T03:45:20;100815.34;;;8.83;68.26
84967;BME280;75275;51.348;12.358;2024-03-22T03:47:46;100813.28;;;8.90;67.55
84967;BME280;75275;51.348;12.358;2024-03-22T03:50:15;100808.88;;;8.89;67.62
84967;BME280;75275;51.348;12.358;2024-03-22T03:52:41;100804.81;;;8.91;67.80
84967;BME280;75275;51.348;12.358;2024-03-22T03:55:08;100809.19;;;8.92;67.50
84967;BME280;75275;51.348;12.358;2024-03-22T03:57:34;100802.72;;;8.99;67.31
84967;BME280;75275;51.348;12.358;2024-03-22T04:00:00;100808.69;;;8.96;67.89
84967;BME280;75275;51.348;12.358;2024-03-22T04:02:26;100797.06;;;8.83;67.53
84967;BME280;75275;51.348;12.358;2024-03-22T04:04:53;100786.88;;;8.79;67.62
84967;BME280;75275;51.348;12.358;2024-03-22T04:07:20;100784.31;;;8.72;67.89
84967;BME280;75275;51.348;12.358;2024-03-22T04:09:47;100783.56;;;8.77;68.13
84967;BME280;75275;51.348;12.358;2024-03-22T04:12:13;100781.25;;;8.68;68.83
84967;BME280;75275;51.348;12.358;2024-03-22T04:14:40;100777.16;;;8.71;67.97
84967;BME280;75275;51.348;12.358;2024-03-22T04:17:06;100769.81;;;8.55;68.96
84967;BME280;75275;51.348;12.358;2024-03-22T04:19:33;100768.84;;;8.44;68.84
84967;BME280;75275;51.348;12.358;2024-03-22T04:21:59;100768.09;;;8.49;68.60
84967;BME280;75275;51.348;12.358;2024-03-22T04:24:28;100758.97;;;8.60;68.77
84967;BME280;75275;51.348;12.358;2024-03-22T04:26:53;100767.00;;;8.66;68.10
84967;BME280;75275;51.348;12.358;2024-03-22T04:29:20;100757.81;;;8.73;68.55
84967;BME280;75275;51.348;12.358;2024-03-22T04:31:46;100763.00;;;8.74;67.62
84967;BME280;75275;51.348;12.358;2024-03-22T04:34:13;100762.50;;;8.77;67.80
84967;BME280;75275;51.348;12.358;2024-03-22T04:36:39;100758.53;;;8.85;67.84
84967;BME280;75275;51.348;12.358;2024-03-22T04:39:06;100752.41;;;8.78;67.27
84967;BME280;75275;51.348;12.358;2024-03-22T04:41:36;100744.13;;;8.73;68.41
84967;BME280;75275;51.348;12.358;2024-03-22T04:44:03;100734.69;;;8.80;67.83
84967;BME280;75275;51.348;12.358;2024-03-22T04:46:35;100728.41;;;8.80;68.13
84967;BME280;75275;51.348;12.358;2024-03-22T04:49:01;100730.53;;;8.78;68.07
84967;BME280;75275;51.348;12.358;2024-03-22T04:51:28;100728.91;;;8.77;67.75
84967;BME280;75275;51.348;12.358;2024-03-22T04:53:53;100732.38;;;8.72;67.59
84967;BME280;75275;51.348;12.358;2024-03-22T04:56:20;100720.63;;;8.72;67.83
84967;BME280;75275;51.348;12.358;2024-03-22T04:58:47;100725.00;;;8.73;68.38
84967;BME280;75275;51.348;12.358;2024-03-22T05:01:14;100717.38;;;8.75;68.00
84967;BME280;75275;51.348;12.358;2024-03-22T05:03:40;100716.13;;;8.82;67.26
84967;BME280;75275;51.348;12.358;2024-03-22T05:06:09;100726.75;;;8.79;67.50
84967;BME280;75275;51.348;12.358;2024-03-22T05:08:34;100731.78;;;8.87;67.85
84967;BME280;75275;51.348;12.358;2024-03-22T05:11:01;100722.16;;;8.84;67.34
84967;BME280;75275;51.348;12.358;2024-03-22T05:13:28;100717.59;;;8.90;67.05
84967;BME280;75275;51.348;12.358;2024-03-22T05:15:57;100717.66;;;8.95;67.29
84967;BME280;75275;51.348;12.358;2024-03-22T05:18:23;100716.56;;;8.96;67.05
84967;BME280;75275;51.348;12.358;2024-03-22T05:20:50;100712.78;;;8.97;66.89
84967;BME280;75275;51.348;12.358;2024-03-22T05:23:16;100710.28;;;8.96;66.70
84967;BME280;75275;51.348;12.358;2024-03-22T05:25:43;100701.25;;;8.95;67.07
84967;BME280;75275;51.348;12.358;2024-03-22T05:28:09;100710.88;;;8.98;66.37
84967;BME280;75275;51.348;12.358;2024-03-22T05:30:37;100708.97;;;8.98;66.89
84967;BME280;75275;51.348;12.358;2024-03-22T05:33:04;100703.00;;;9.01;66.81
84967;BME280;75275;51.348;12.358;2024-03-22T05:35:31;100701.94;;;9.07;66.36
84967;BME280;75275;51.348;12.358;2024-03-22T05:37:57;100702.59;;;9.14;66.22
84967;BME280;75275;51.348;12.358;2024-03-22T05:40:24;100702.16;;;9.23;65.49
84967;BME280;75275;51.348;12.358;2024-03-22T05:42:50;100706.53;;;9.24;65.51
84967;BME280;75275;51.348;12.358;2024-03-22T05:45:17;100704.44;;;9.31;65.16
84967;BME280;75275;51.348;12.358;2024-03-22T05:47:43;100701.19;;;9.34;65.19
84967;BME280;75275;51.348;12.358;2024-03-22T05:50:23;100697.16;;;9.42;64.76
84967;BME280;75275;51.348;12.358;2024-03-22T05:52:49;100690.97;;;9.51;64.54
84967;BME280;75275;51.348;12.358;2024-03-22T05:55:16;100693.56;;;9.63;64.09
84967;BME280;75275;51.348;12.358;2024-03-22T05:57:43;100694.38;;;9.63;63.64
84967;BME280;75275;51.348;12.358;2024-03-22T06:00:14;100685.69;;;9.72;63.31
84967;BME280;75275;51.348;12.358;2024-03-22T06:02:40;100682.19;;;9.76;63.29
84967;BME280;75275;51.348;12.358;2024-03-22T06:05:07;100682.25;;;9.81;62.88
84967;BME280;75275;51.348;12.358;2024-03-22T06:07:34;100684.72;;;9.83;62.59
84967;BME280;75275;51.348;12.358;2024-03-22T06:10:08;100677.06;;;9.85;62.59
84967;BME280;75275;51.348;12.358;2024-03-22T06:12:35;100682.59;;;9.90;62.91
84967;BME280;75275;51.348;12.358;2024-03-22T06:15:03;100685.38;;;9.95;62.71
84967;BME280;75275;51.348;12.358;2024-03-22T06:17:31;100678.59;;;10.03;62.28
84967;BME280;75275;51.348;12.358;2024-03-22T06:20:01;100673.44;;;10.11;62.02
84967;BME280;75275;51.348;12.358;2024-03-22T06:22:27;100679.56;;;10.24;61.38
84967;BME280;75275;51.348;12.358;2024-03-22T06:24:56;100679.72;;;10.39;61.34
84967;BME280;75275;51.348;12.358;2024-03-22T06:27:21;100675.19;;;10.60;60.60
84967;BME280;75275;51.348;12.358;2024-03-22T06:29:48;100670.34;;;10.77;59.49
84967;BME280;75275;51.348;12.358;2024-03-22T06:32:14;100663.91;;;11.04;58.66
84967;BME280;75275;51.348;12.358;2024-03-22T06:34:49;100667.25;;;11.26;57.73
84967;BME280;75275;51.348;12.358;2024-03-22T06:37:17;100659.31;;;11.35;57.25
84967;BME280;75275;51.348;12.358;2024-03-22T06:39:44;100657.94;;;11.27;57.90
84967;BME280;75275;51.348;12.358;2024-03-22T06:42:14;100650.81;;;11.26;57.59
84967;BME280;75275;51.348;12.358;2024-03-22T06:44:41;100649.41;;;11.29;57.26
84967;BME280;75275;51.348;12.358;2024-03-22T06:47:07;100653.28;;;11.38;57.08
84967;BME280;75275;51.348;12.358;2024-03-22T06:49:34;100649.19;;;11.41;57.30
84967;BME280;75275;51.348;12.358;2024-03-22T06:52:00;100645.06;;;11.53;56.42
84967;BME280;75275;51.348;12.358;2024-03-22T06:54:27;100642.63;;;11.62;56.28
84967;BME280;75275;51.348;12.358;2024-03-22T06:56:52;100640.16;;;11.71;55.96
84967;BME280;75275;51.348;12.358;2024-03-22T06:59:21;100623.69;;;11.81;56.31
84967;BME280;75275;51.348;12.358;2024-03-22T07:01:46;100630.56;;;11.84;55.39
84967;BME280;75275;51.348;12.358;2024-03-22T07:04:14;100609.97;;;11.86;55.46
84967;BME280;75275;51.348;12.358;2024-03-22T07:06:40;100614.09;;;11.99;55.19
84967;BME280;75275;51.348;12.358;2024-03-22T07:09:09;100609.41;;;12.15;55.00
84967;BME280;75275;51.348;12.358;2024-03-22T07:11:35;100611.06;;;12.00;55.18
84967;BME280;75275;51.348;12.358;2024-03-22T07:14:03;100606.69;;;11.94;55.80
84967;BME280;75275;51.348;12.358;2024-03-22T07:16:32;100617.69;;;11.99;55.60
84967;BME280;75275;51.348;12.358;2024-03-22T07:18:58;100608.31;;;12.00;55.34
84967;BME280;75275;51.348;12.358;2024-03-22T07:21:25;100599.25;;;12.20;54.81
84967;BME280;75275;51.348;12.358;2024-03-22T07:23:53;100600.59;;;12.28;54.59
84967;BME280;75275;51.348;12.358;2024-03-22T07:26:21;100592.91;;;12.20;55.23
84967;BME280;75275;51.348;12.358;2024-03-22T07:28:47;100596.16;;;12.42;54.64
84967;BME280;75275;51.348;12.358;2024-03-22T07:31:16;100604.38;;;12.47;54.08
84967;BME280;75275;51.348;12.358;2024-03-22T07:33:44;100603.03;;;12.40;54.37
84967;BME280;75275;51.348;12.358;2024-03-22T07:36:11;100607.44;;;12.46;54.44
84967;BME280;75275;51.348;12.358;2024-03-22T07:38:37;100622.22;;;12.55;54.29
84967;BME280;75275;51.348;12.358;2024-03-22T07:41:04;100623.06;;;12.56;54.29
84967;BME280;75275;51.348;12.358;2024-03-22T07:43:30;100617.81;;;12.59;54.00
84967;BME280;75275;51.348;12.358;2024-03-22T07:45:58;100614.47;;;12.72;54.17
84967;BME280;75275;51.348;12.358;2024-03-22T07:48:23;100616.09;;;12.84;53.63
84967;BME280;75275;51.348;12.358;2024-03-22T07:50:57;100620.72;;;12.88;53.80
84967;BME280;75275;51.348;12.358;2024-03-22T07:53:28;100620.13;;;13.01;53.26
84967;BME280;75275;51.348;12.358;2024-03-22T07:55:55;100610.09;;;13.21;53.24
84967;BME280;75275;51.348;12.358;2024-03-22T07:58:21;100601.72;;;13.46;52.51
84967;BME280;75275;51.348;12.358;2024-03-22T08:00:47;100609.88;;;13.62;52.39
84967;BME280;75275;51.348;12.358;2024-03-22T08:03:15;100605.00;;;14.17;51.23
84967;BME280;75275;51.348;12.358;2024-03-22T08:05:42;100596.31;;;14.58;50.46
84967;BME280;75275;51.348;12.358;2024-03-22T08:08:10;100601.81;;;14.82;49.55
84967;BME280;75275;51.348;12.358;2024-03-22T08:10:37;100604.50;;;14.87;48.80
84967;BME280;75275;51.348;12.358;2024-03-22T08:13:03;100608.75;;;14.79;48.47
84967;BME280;75275;51.348;12.358;2024-03-22T08:15:30;100607.03;;;14.59;48.91
84967;BME280;75275;51.348;12.358;2024-03-22T08:17:56;100600.59;;;14.69;49.59
84967;BME280;75275;51.348;12.358;2024-03-22T08:20:24;100594.69;;;15.00;48.58
84967;BME280;75275;51.348;12.358;2024-03-22T08:22:50;100601.94;;;15.33;47.44
84967;BME280;75275;51.348;12.358;2024-03-22T08:25:18;100586.44;;;15.89;46.56
84967;BME280;75275;51.348;12.358;2024-03-22T08:27:45;100577.47;;;16.11;45.33
84967;BME280;75275;51.348;12.358;2024-03-22T08:30:13;100577.31;;;16.35;44.76
84967;BME280;75275;51.348;12.358;2024-03-22T08:32:39;100582.09;;;16.29;45.20
84967;BME280;75275;51.348;12.358;2024-03-22T08:35:06;100576.97;;;16.23;45.51
84967;BME280;75275;51.348;12.358;2024-03-22T08:37:33;100569.22;;;16.52;44.75
84967;BME280;75275;51.348;12.358;2024-03-22T08:40:00;100571.47;;;16.64;44.03
84967;BME280;75275;51.348;12.358;2024-03-22T08:42:30;100559.31;;;17.15;43.22
84967;BME280;75275;51.348;12.358;2024-03-22T08:45:05;100557.28;;;17.66;41.81
84967;BME280;75275;51.348;12.358;2024-03-22T08:47:33;100560.94;;;17.97;40.75
84967;BME280;75275;51.348;12.358;2024-03-22T08:50:03;100551.59;;;17.71;41.10
84967;BME280;75275;51.348;12.358;2024-03-22T08:52:30;100560.31;;;17.19;42.02
84967;BME280;75275;51.348;12.358;2024-03-22T08:54:57;100555.16;;;16.90;42.65
84967;BME280;75275;51.348;12.358;2024-03-22T08:57:23;100548.78;;;16.62;43.54
84967;BME280;75275;51.348;12.358;2024-03-22T08:59:52;100536.50;;;16.54;43.61
84967;BME280;75275;51.348;12.358;2024-03-22T09:02:17;100532.00;;;16.17;44.73
84967;BME280;75275;51.348;12.358;2024-03-22T09:04:45;100526.34;;;15.62;45.96
84967;BME280;75275;51.348;12.358;2024-03-22T09:07:12;100515.00;;;15.12;46.72
84967;BME280;75275;51.348;12.358;2024-03-22T09:09:39;100523.84;;;15.28;47.19
84967;BME280;75275;51.348;12.358;2024-03-22T09:12:06;100517.88;;;15.72;46.40
84967;BME280;75275;51.348;12.358;2024-03-22T09:14:33;100523.59;;;16.36;44.15
84967;BME280;75275;51.348;12.358;2024-03-22T09:17:01;100505.44;;;17.21;42.47
84967;BME280;75275;51.348;12.358;2024-03-22T09:19:30;100503.09;;;18.70;39.35
84967;BME280;75275;51.348;12.358;2024-03-22T09:21:57;100490.38;;;20.50;35.85
84967;BME280;75275;51.348;12.358;2024-03-22T09:24:24;100482.09;;;21.92;33.19
84967;BME280;75275;51.348;12.358;2024-03-22T09:26:50;100485.75;;;22.29;31.88
84967;BME280;75275;51.348;12.358;2024-03-22T09:29:21;100486.66;;;22.08;32.03
84967;BME280;75275;51.348;12.358;2024-03-22T09:31:46;100487.88;;;21.41;32.64
84967;BME280;75275;51.348;12.358;2024-03-22T09:34:22;100485.63;;;20.42;34.51
84967;BME280;75275;51.348;12.358;2024-03-22T09:36:50;100486.09;;;19.59;36.38
84967;BME280;75275;51.348;12.358;2024-03-22T09:39:17;100489.09;;;18.93;37.72
84967;BME280;75275;51.348;12.358;2024-03-22T09:41:43;100486.69;;;18.51;38.62
84967;BME280;75275;51.348;12.358;2024-03-22T09:44:13;100484.59;;;18.57;38.41
84967;BME280;75275;51.348;12.358;2024-03-22T09:46:39;100472.41;;;18.18;39.50
84967;BME280;75275;51.348;12.358;2024-03-22T09:49:08;100466.72;;;18.32;39.62
84967;BME280;75275;51.348;12.358;2024-03-22T09:51:37;100466.50;;;18.11;39.96
84967;BME280;75275;51.348;12.358;2024-03-22T09:54:04;100461.69;;;17.63;41.18
84967;BME280;75275;51.348;12.358;2024-03-22T09:56:30;100460.84;;;17.09;42.19
84967;BME280;75275;51.348;12.358;2024-03-22T09:58:58;100469.84;;;16.92;43.04
84967;BME280;75275;51.348;12.358;2024-03-22T10:01:24;100470.56;;;16.84;43.38
84967;BME280;75275;51.348;12.358;2024-03-22T10:03:55;100461.97;;;16.86;43.58
84967;BME280;75275;51.348;12.358;2024-03-22T10:06:21;100455.09;;;16.83;43.62
84967;BME280;75275;51.348;12.358;2024-03-22T10:08:50;100461.06;;;16.76;43.75
84967;BME280;75275;51.348;12.358;2024-03-22T10:11:18;100446.25;;;16.81;43.68
84967;BME280;75275;51.348;12.358;2024-03-22T10:13:46;100448.75;;;16.69;43.98
84967;BME280;75275;51.348;12.358;2024-03-22T10:16:16;100442.59;;;16.72;44.26
84967;BME280;75275;51.348;12.358;2024-03-22T10:18:44;100441.56;;;16.68;43.93
84967;BME280;75275;51.348;12.358;2024-03-22T10:21:09;100436.25;;;16.71;44.04
84967;BME280;75275;51.348;12.358;2024-03-22T10:23:36;100428.41;;;16.87;43.88
84967;BME280;75275;51.348;12.358;2024-03-22T10:26:10;100428.22;;;17.06;43.46
84967;BME280;75275;51.348;12.358;2024-03-22T10:28:44;100422.38;;;17.30;42.90
84967;BME280;75275;51.348;12.358;2024-03-22T10:31:11;100412.47;;;17.38;42.87
84967;BME280;75275;51.348;12.358;2024-03-22T10:33:41;100418.16;;;17.32;42.81
84967;BME280;75275;51.348;12.358;2024-03-22T10:36:10;100421.56;;;17.29;43.23
84967;BME280;75275;51.348;12.358;2024-03-22T10:38:38;100415.19;;;17.29;43.17
84967;BME280;75275;51.348;12.358;2024-03-22T10:41:06;100410.22;;;17.40;43.10
84967;BME280;75275;51.348;12.358;2024-03-22T10:43:34;100410.59;;;17.47;42.65
84967;BME280;75275;51.348;12.358;2024-03-22T10:46:02;100402.78;;;17.80;42.09
84967;BME280;75275;51.348;12.358;2024-03-22T10:48:31;100413.41;;;17.64;41.96
84967;BME280;75275;51.348;12.358;2024-03-22T10:50:59;100406.16;;;17.46;42.54
84967;BME280;75275;51.348;12.358;2024-03-22T10:53:30;100397.22;;;17.80;41.75
84967;BME280;75275;51.348;12.358;2024-03-22T10:55:59;100400.38;;;18.04;41.19
84967;BME280;75275;51.348;12.358;2024-03-22T10:58:28;100393.66;;;17.97;41.29
84967;BME280;75275;51.348;12.358;2024-03-22T11:00:56;100387.31;;;17.96;41.52
84967;BME280;75275;51.348;12.358;2024-03-22T11:03:23;100389.69;;;18.38;41.01
84967;BME280;75275;51.348;12.358;2024-03-22T11:05:53;100381.84;;;18.66;39.79
84967;BME280;75275;51.348;12.358;2024-03-22T11:08:23;100378.09;;;18.62;39.92
84967;BME280;75275;51.348;12.358;2024-03-22T11:10:51;100374.19;;;18.54;40.00
84967;BME280;75275;51.348;12.358;2024-03-22T11:13:18;100374.34;;;18.66;40.04
84967;BME280;75275;51.348;12.358;2024-03-22T11:15:48;100382.03;;;18.35;40.65
84967;BME280;75275;51.348;12.358;2024-03-22T11:18:14;100372.91;;;18.60;40.38
84967;BME280;75275;51.348;12.358;2024-03-22T11:20:44;100368.03;;;18.74;39.61
84967;BME280;75275;51.348;12.358;2024-03-22T11:23:10;100343.47;;;19.58;38.43
84967;BME280;75275;51.348;12.358;2024-03-22T11:25:39;100350.28;;;20.29;37.14
84967;BME280;75275;51.348;12.358;2024-03-22T11:28:07;100343.28;;;20.23;36.79
84967;BME280;75275;51.348;12.358;2024-03-22T11:30:38;100344.25;;;19.67;38.20
84967;BME280;75275;51.348;12.358;2024-03-22T11:33:08;100342.06;;;19.35;39.06
84967;BME280;75275;51.348;12.358;2024-03-22T11:35:36;100338.34;;;19.22;39.52
84967;BME280;75275;51.348;12.358;2024-03-22T11:38:02;100337.84;;;19.29;39.38
84967;BME280;75275;51.348;12.358;2024-03-22T11:40:30;100327.94;;;19.57;38.69
84967;BME280;75275;51.348;12.358;2024-03-22T11:42:59;100328.47;;;19.42;38.98
84967;BME280;75275;51.348;12.358;2024-03-22T11:45:28;100319.22;;;19.20;39.46
84967;BME280;75275;51.348;12.358;2024-03-22T11:47:54;100308.69;;;18.96;40.12
84967;BME280;75275;51.348;12.358;2024-03-22T11:50:22;100298.88;;;18.90;40.21
84967;BME280;75275;51.348;12.358;2024-03-22T11:52:48;100308.66;;;19.05;40.25
84967;BME280;75275;51.348;12.358;2024-03-22T11:55:17;100298.50;;;19.09;40.20
84967;BME280;75275;51.348;12.358;2024-03-22T11:57:48;100304.03;;;19.18;39.94
84967;BME280;75275;51.348;12.358;2024-03-22T12:00:18;100302.19;;;19.31;39.53
84967;BME280;75275;51.348;12.358;2024-03-22T12:02:44;100296.50;;;19.57;38.95
84967;BME280;75275;51.348;12.358;2024-03-22T12:05:11;100289.66;;;19.54;38.98
84967;BME280;75275;51.348;12.358;2024-03-22T12:07:39;100292.72;;;19.70;39.07
84967;BME280;75275;51.348;12.358;2024-03-22T12:10:07;100284.44;;;19.82;38.74
84967;BME280;75275;51.348;12.358;2024-03-22T12:12:33;100278.72;;;19.49;39.31
84967;BME280;75275;51.348;12.358;2024-03-22T12:15:02;100274.53;;;19.34;39.81
84967;BME280;75275;51.348;12.358;2024-03-22T12:17:28;100266.69;;;19.36;39.91
84967;BME280;75275;51.348;12.358;2024-03-22T12:19:55;100272.41;;;19.40;40.12
84967;BME280;75275;51.348;12.358;2024-03-22T12:22:21;100263.13;;;19.27;40.04
84967;BME280;75275;51.348;12.358;2024-03-22T12:24:52;100261.28;;;19.40;40.33
84967;BME280;75275;51.348;12.358;2024-03-22T12:27:18;100250.06;;;19.57;39.83
84967;BME280;75275;51.348;12.358;2024-03-22T12:29:45;100251.13;;;19.74;39.83
84967;BME280;75275;51.348;12.358;2024-03-22T12:32:11;100248.75;;;19.63;39.93
84967;BME280;75275;51.348;12.358;2024-03-22T12:34:46;100239.09;;;19.61;39.92
84967;BME280;75275;51.348;12.358;2024-03-22T12:37:13;100233.09;;;19.80;39.44
84967;BME280;75275;51.348;12.358;2024-03-22T12:39:44;100237.72;;;19.76;39.58
84967;BME280;75275;51.348;12.358;2024-03-22T12:42:11;100232.06;;;19.63;39.95
84967;BME280;75275;51.348;12.358;2024-03-22T12:44:40;100223.47;;;19.77;39.75